sensor_id;sensor_type;location;lat;lon;timestamp;temperature;humidity
42339;DHT22;27993;45.392;10.918;2022-10-26T00:02:14;17.10;99.90
42339;DHT22;27993;45.392;10.918;2022-10-26T00:04:44;17.00;99.90
42339;DHT22;27993;45.392;10.918;2022-10-26T00:07:15;17.00;99.90
42339;DHT22;27993;45.392;10.918;2022-10-26T00:09:46;17.10;99.90
42339;DHT22;27993;45.392;10.918;2022-10-26T00:12:16;17.10;99.90
42339;DHT22;27993;45.392;10.918;2022-10-26T00:14:47;17.00;99.90
42339;DHT22;27993;45.392;10.918;2022-10-26T00:17:17;17.10;99.90
42339;DHT22;27993;45.392;10.918;2022-10-26T00:19:48;17.10;99.90
42339;DHT22;27993;45.392;10.918;2022-10-26T00:22:19;17.20;99.90
42339;DHT22;27993;45.392;10.918;2022-10-26T00:24:49;17.30;99.90
42339;DHT22;27993;45.392;10.918;2022-10-26T00:27:20;17.40;99.90
42339;DHT22;27993;45.392;10.918;2022-10-26T00:29:51;17.40;99.90
42339;DHT22;27993;45.392;10.918;2022-10-26T00:32:21;17.40;99.90
42339;DHT22;27993;45.392;10.918;2022-10-26T00:34:52;17.40;99.90
42339;DHT22;27993;45.392;10.918;2022-10-26T00:37:23;17.30;99.90
42339;DHT22;27993;45.392;10.918;2022-10-26T00:39:53;17.20;99.90
42339;DHT22;27993;45.392;10.918;2022-10-26T00:42:24;17.00;99.90
42339;DHT22;27993;45.392;10.918;2022-10-26T00:45:20;17.00;99.90
42339;DHT22;27993;45.392;10.918;2022-10-26T00:47:57;17.10;99.90
42339;DHT22;27993;45.392;10.918;2022-10-26T00:50:34;17.20;99.90
42339;DHT22;27993;45.392;10.918;2022-10-26T00:53:06;17.10;99.90
42339;DHT22;27993;45.392;10.918;2022-10-26T00:55:42;17.10;99.90
42339;DHT22;27993;45.392;10.918;2022-10-26T00:58:14;17.10;99.90
42339;DHT22;27993;45.392;10.918;2022-10-26T01:00:46;17.10;99.90
42339;DHT22;27993;45.392;10.918;2022-10-26T01:03:18;17.20;99.90
42339;DHT22;27993;45.392;10.918;2022-10-26T01:05:48;17.20;99.90
42339;DHT22;27993;45.392;10.918;2022-10-26T01:08:19;17.30;99.90
42339;DHT22;27993;45.392;10.918;2022-10-26T01:10:50;17.20;99.90
42339;DHT22;27993;45.392;10.918;2022-10-26T01:13:21;17.30;99.90
42339;DHT22;27993;45.392;10.918;2022-10-26T01:18:46;17.00;99.90
42339;DHT22;27993;45.392;10.918;2022-10-26T01:27:46;16.40;99.90
42339;DHT22;27993;45.392;10.918;2022-10-26T01:44:08;16.10;99.90
42339;DHT22;27993;45.392;10.918;2022-10-26T01:46:42;16.00;99.90
42339;DHT22;27993;45.392;10.918;2022-10-26T01:49:16;16.10;99.90
42339;DHT22;27993;45.392;10.918;2022-10-26T01:51:49;16.10;99.90
42339;DHT22;27993;45.392;10.918;2022-10-26T01:54:19;16.00;99.90
42339;DHT22;27993;45.392;10.918;2022-10-26T01:56:53;16.10;99.90
42339;DHT22;27993;45.392;10.918;2022-10-26T02:16:47;16.40;99.90
42339;DHT22;27993;45.392;10.918;2022-10-26T02:18:51;16.50;99.90
42339;DHT22;27993;45.392;10.918;2022-10-26T02:21:29;16.40;99.90
42339;DHT22;27993;45.392;10.918;2022-10-26T02:24:02;16.40;99.90
42339;DHT22;27993;45.392;10.918;2022-10-26T02:26:35;16.50;99.90
42339;DHT22;27993;45.392;10.918;2022-10-26T02:29:08;16.50;99.90
42339;DHT22;27993;45.392;10.918;2022-10-26T02:31:42;16.60;99.90
42339;DHT22;27993;45.392;10.918;2022-10-26T02:34:20;16.60;99.90
42339;DHT22;27993;45.392;10.918;2022-10-26T02:36:53;16.50;99.90
42339;DHT22;27993;45.392;10.918;2022-10-26T02:39:26;16.50;99.90
42339;DHT22;27993;45.392;10.918;2022-10-26T02:42:03;16.50;99.90
42339;DHT22;27993;45.392;10.918;2022-10-26T02:44:43;16.50;99.90
42339;DHT22;27993;45.392;10.918;2022-10-26T02:47:16;16.40;99.90
42339;DHT22;27993;45.392;10.918;2022-10-26T02:49:47;16.50;99.90
42339;DHT22;27993;45.392;10.918;2022-10-26T02:52:38;16.50;99.90
42339;DHT22;27993;45.392;10.918;2022-10-26T02:55:22;16.50;99.90
42339;DHT22;27993;45.392;10.918;2022-10-26T02:57:57;16.40;99.90
42339;DHT22;27993;45.392;10.918;2022-10-26T03:00:30;16.40;99.90
42339;DHT22;27993;45.392;10.918;2022-10-26T03:03:01;16.40;99.90
42339;DHT22;27993;45.392;10.918;2022-10-26T03:05:33;16.40;99.90
42339;DHT22;27993;45.392;10.918;2022-10-26T03:08:06;16.40;99.90
42339;DHT22;27993;45.392;10.918;2022-10-26T03:10:40;16.30;99.90
42339;DHT22;27993;45.392;10.918;2022-10-26T03:13:12;16.40;99.90
42339;DHT22;27993;45.392;10.918;2022-10-26T03:15:43;16.40;99.90
42339;DHT22;27993;45.392;10.918;2022-10-26T03:18:14;16.30;99.90
42339;DHT22;27993;45.392;10.918;2022-10-26T03:20:44;16.30;99.90
42339;DHT22;27993;45.392;10.918;2022-10-26T03:23:15;16.20;99.90
42339;DHT22;27993;45.392;10.918;2022-10-26T03:25:45;16.10;99.90
42339;DHT22;27993;45.392;10.918;2022-10-26T03:28:16;16.00;99.90
42339;DHT22;27993;45.392;10.918;2022-10-26T03:30:47;16.00;99.90
42339;DHT22;27993;45.392;10.918;2022-10-26T03:33:17;16.10;99.90
42339;DHT22;27993;45.392;10.918;2022-10-26T03:35:54;16.20;99.90
42339;DHT22;27993;45.392;10.918;2022-10-26T03:38:25;16.20;99.90
42339;DHT22;27993;45.392;10.918;2022-10-26T03:40:55;16.20;99.90
42339;DHT22;27993;45.392;10.918;2022-10-26T03:43:26;16.20;99.90
42339;DHT22;27993;45.392;10.918;2022-10-26T03:45:57;16.30;99.90
42339;DHT22;27993;45.392;10.918;2022-10-26T03:48:27;16.10;99.90
42339;DHT22;27993;45.392;10.918;2022-10-26T03:50:58;16.00;99.90
42339;DHT22;27993;45.392;10.918;2022-10-26T03:53:29;16.00;99.90
42339;DHT22;27993;45.392;10.918;2022-10-26T03:55:59;16.00;99.90
42339;DHT22;27993;45.392;10.918;2022-10-26T03:58:30;16.00;99.90
42339;DHT22;27993;45.392;10.918;2022-10-26T04:01:00;15.90;99.90
42339;DHT22;27993;45.392;10.918;2022-10-26T04:03:31;15.90;99.90
42339;DHT22;27993;45.392;10.918;2022-10-26T04:06:02;15.90;99.90
42339;DHT22;27993;45.392;10.918;2022-10-26T04:08:33;16.00;99.90
42339;DHT22;27993;45.392;10.918;2022-10-26T04:11:04;16.00;99.90
42339;DHT22;27993;45.392;10.918;2022-10-26T04:13:35;16.10;99.90
42339;DHT22;27993;45.392;10.918;2022-10-26T04:16:05;16.10;99.90
42339;DHT22;27993;45.392;10.918;2022-10-26T04:18:36;16.10;99.90
42339;DHT22;27993;45.392;10.918;2022-10-26T04:21:07;16.10;99.90
42339;DHT22;27993;45.392;10.918;2022-10-26T04:23:37;16.00;99.90
42339;DHT22;27993;45.392;10.918;2022-10-26T04:26:10;16.10;99.90
42339;DHT22;27993;45.392;10.918;2022-10-26T04:28:41;16.10;99.90
42339;DHT22;27993;45.392;10.918;2022-10-26T04:31:11;16.00;99.90
42339;DHT22;27993;45.392;10.918;2022-10-26T04:33:45;15.90;99.90
42339;DHT22;27993;45.392;10.918;2022-10-26T04:36:15;16.00;99.90
42339;DHT22;27993;45.392;10.918;2022-10-26T04:41:26;15.70;99.90
42339;DHT22;27993;45.392;10.918;2022-10-26T04:43:57;15.80;99.90
42339;DHT22;27993;45.392;10.918;2022-10-26T04:46:28;15.80;99.90
42339;DHT22;27993;45.392;10.918;2022-10-26T04:48:58;16.00;99.90
42339;DHT22;27993;45.392;10.918;2022-10-26T04:51:29;16.00;99.90
42339;DHT22;27993;45.392;10.918;2022-10-26T04:54:00;16.10;99.90
42339;DHT22;27993;45.392;10.918;2022-10-26T04:56:31;16.10;99.90
42339;DHT22;27993;45.392;10.918;2022-10-26T04:59:02;16.10;99.90
42339;DHT22;27993;45.392;10.918;2022-10-26T05:01:32;16.20;99.90
42339;DHT22;27993;45.392;10.918;2022-10-26T05:04:03;16.30;99.90
42339;DHT22;27993;45.392;10.918;2022-10-26T05:06:34;16.20;99.90
42339;DHT22;27993;45.392;10.918;2022-10-26T05:09:04;16.20;99.90
42339;DHT22;27993;45.392;10.918;2022-10-26T05:11:35;16.20;99.90
42339;DHT22;27993;45.392;10.918;2022-10-26T05:14:06;16.10;99.90
42339;DHT22;27993;45.392;10.918;2022-10-26T05:16:36;16.20;99.90
42339;DHT22;27993;45.392;10.918;2022-10-26T05:19:07;16.20;99.90
42339;DHT22;27993;45.392;10.918;2022-10-26T05:21:37;16.20;99.90
42339;DHT22;27993;45.392;10.918;2022-10-26T05:24:08;16.00;99.90
42339;DHT22;27993;45.392;10.918;2022-10-26T05:26:39;15.80;99.90
42339;DHT22;27993;45.392;10.918;2022-10-26T05:29:09;15.70;99.90
42339;DHT22;27993;45.392;10.918;2022-10-26T05:31:40;15.70;99.90
42339;DHT22;27993;45.392;10.918;2022-10-26T05:34:10;15.70;99.90
42339;DHT22;27993;45.392;10.918;2022-10-26T05:36:41;15.80;99.90
42339;DHT22;27993;45.392;10.918;2022-10-26T05:39:12;15.70;99.90
42339;DHT22;27993;45.392;10.918;2022-10-26T05:41:42;15.70;99.90
42339;DHT22;27993;45.392;10.918;2022-10-26T05:44:13;15.80;99.90
42339;DHT22;27993;45.392;10.918;2022-10-26T05:46:45;15.90;99.90
42339;DHT22;27993;45.392;10.918;2022-10-26T05:49:16;15.90;99.90
42339;DHT22;27993;45.392;10.918;2022-10-26T05:51:47;16.00;99.90
42339;DHT22;27993;45.392;10.918;2022-10-26T05:54:17;16.00;99.90
42339;DHT22;27993;45.392;10.918;2022-10-26T05:56:48;16.00;99.90
42339;DHT22;27993;45.392;10.918;2022-10-26T05:59:19;16.00;99.90
42339;DHT22;27993;45.392;10.918;2022-10-26T06:07:11;16.30;99.90
42339;DHT22;27993;45.392;10.918;2022-10-26T06:09:43;16.40;99.90
42339;DHT22;27993;45.392;10.918;2022-10-26T06:12:15;16.50;99.90
42339;DHT22;27993;45.392;10.918;2022-10-26T06:14:46;16.50;99.90
42339;DHT22;27993;45.392;10.918;2022-10-26T06:31:31;16.60;99.90
42339;DHT22;27993;45.392;10.918;2022-10-26T06:34:02;16.60;99.90
42339;DHT22;27993;45.392;10.918;2022-10-26T06:36:33;16.70;99.90
42339;DHT22;27993;45.392;10.918;2022-10-26T06:39:06;16.70;99.90
42339;DHT22;27993;45.392;10.918;2022-10-26T06:41:38;16.80;99.90
42339;DHT22;27993;45.392;10.918;2022-10-26T06:44:14;16.90;99.90
42339;DHT22;27993;45.392;10.918;2022-10-26T06:46:51;17.00;99.90
42339;DHT22;27993;45.392;10.918;2022-10-26T06:52:40;17.10;99.90
42339;DHT22;27993;45.392;10.918;2022-10-26T06:55:13;17.20;99.90
42339;DHT22;27993;45.392;10.918;2022-10-26T06:57:44;17.30;99.90
42339;DHT22;27993;45.392;10.918;2022-10-26T07:00:21;17.30;99.90
42339;DHT22;27993;45.392;10.918;2022-10-26T07:02:52;17.40;99.90
42339;DHT22;27993;45.392;10.918;2022-10-26T07:05:23;17.40;99.90
42339;DHT22;27993;45.392;10.918;2022-10-26T07:07:53;17.50;99.90
42339;DHT22;27993;45.392;10.918;2022-10-26T07:10:24;17.50;99.90
42339;DHT22;27993;45.392;10.918;2022-10-26T07:12:54;17.60;99.90
42339;DHT22;27993;45.392;10.918;2022-10-26T07:15:25;17.70;99.90
42339;DHT22;27993;45.392;10.918;2022-10-26T07:17:56;17.90;99.90
42339;DHT22;27993;45.392;10.918;2022-10-26T07:20:26;18.00;99.90
42339;DHT22;27993;45.392;10.918;2022-10-26T07:22:57;18.10;99.90
42339;DHT22;27993;45.392;10.918;2022-10-26T07:25:28;18.30;99.90
42339;DHT22;27993;45.392;10.918;2022-10-26T07:27:59;18.70;99.90
42339;DHT22;27993;45.392;10.918;2022-10-26T07:30:30;19.10;99.90
42339;DHT22;27993;45.392;10.918;2022-10-26T07:33:07;19.40;99.90
42339;DHT22;27993;45.392;10.918;2022-10-26T07:35:38;19.80;99.90
42339;DHT22;27993;45.392;10.918;2022-10-26T07:38:11;20.00;99.90
42339;DHT22;27993;45.392;10.918;2022-10-26T07:40:42;20.10;99.90
42339;DHT22;27993;45.392;10.918;2022-10-26T07:43:13;20.60;99.90
42339;DHT22;27993;45.392;10.918;2022-10-26T07:45:48;20.90;99.90
42339;DHT22;27993;45.392;10.918;2022-10-26T07:48:19;20.90;99.90
42339;DHT22;27993;45.392;10.918;2022-10-26T07:50:50;21.30;99.90
42339;DHT22;27993;45.392;10.918;2022-10-26T07:53:20;21.50;99.90
42339;DHT22;27993;45.392;10.918;2022-10-26T07:55:53;21.60;99.90
42339;DHT22;27993;45.392;10.918;2022-10-26T07:58:24;21.90;99.90
42339;DHT22;27993;45.392;10.918;2022-10-26T08:00:55;22.40;99.90
42339;DHT22;27993;45.392;10.918;2022-10-26T08:03:26;22.30;99.90
42339;DHT22;27993;45.392;10.918;2022-10-26T08:05:57;21.80;99.90
42339;DHT22;27993;45.392;10.918;2022-10-26T08:08:27;21.30;99.90
42339;DHT22;27993;45.392;10.918;2022-10-26T08:10:58;21.00;99.90
42339;DHT22;27993;45.392;10.918;2022-10-26T08:13:29;20.90;99.90
42339;DHT22;27993;45.392;10.918;2022-10-26T08:16:02;20.60;99.90
42339;DHT22;27993;45.392;10.918;2022-10-26T08:18:34;20.50;99.90
42339;DHT22;27993;45.392;10.918;2022-10-26T08:21:06;20.20;99.90
42339;DHT22;27993;45.392;10.918;2022-10-26T08:23:37;20.00;99.90
42339;DHT22;27993;45.392;10.918;2022-10-26T08:26:08;20.10;99.90
42339;DHT22;27993;45.392;10.918;2022-10-26T08:28:42;20.20;99.90
42339;DHT22;27993;45.392;10.918;2022-10-26T08:31:12;20.20;99.90
42339;DHT22;27993;45.392;10.918;2022-10-26T08:33:43;20.50;99.90
42339;DHT22;27993;45.392;10.918;2022-10-26T08:36:14;20.50;99.90
42339;DHT22;27993;45.392;10.918;2022-10-26T08:38:49;20.50;99.90
42339;DHT22;27993;45.392;10.918;2022-10-26T08:41:33;20.70;99.90
42339;DHT22;27993;45.392;10.918;2022-10-26T08:44:24;20.80;99.90
42339;DHT22;27993;45.392;10.918;2022-10-26T08:47:09;20.70;99.90
42339;DHT22;27993;45.392;10.918;2022-10-26T08:50:04;20.60;99.90
42339;DHT22;27993;45.392;10.918;2022-10-26T08:52:47;20.60;99.90
42339;DHT22;27993;45.392;10.918;2022-10-26T08:55:28;20.50;99.90
42339;DHT22;27993;45.392;10.918;2022-10-26T08:58:04;20.60;99.90
42339;DHT22;27993;45.392;10.918;2022-10-26T09:00:37;20.50;99.90
42339;DHT22;27993;45.392;10.918;2022-10-26T09:03:16;20.50;99.90
42339;DHT22;27993;45.392;10.918;2022-10-26T09:17:31;22.20;99.90
42339;DHT22;27993;45.392;10.918;2022-10-26T09:20:17;22.00;99.90
42339;DHT22;27993;45.392;10.918;2022-10-26T09:25:38;23.90;99.90
42339;DHT22;27993;45.392;10.918;2022-10-26T09:28:17;24.70;99.90
42339;DHT22;27993;45.392;10.918;2022-10-26T09:30:48;24.80;99.90
42339;DHT22;27993;45.392;10.918;2022-10-26T09:33:22;24.50;99.90
42339;DHT22;27993;45.392;10.918;2022-10-26T09:36:10;25.10;99.90
42339;DHT22;27993;45.392;10.918;2022-10-26T09:38:55;24.40;99.90
42339;DHT22;27993;45.392;10.918;2022-10-26T09:41:54;24.70;99.90
42339;DHT22;27993;45.392;10.918;2022-10-26T09:44:43;24.70;99.90
42339;DHT22;27993;45.392;10.918;2022-10-26T09:47:29;24.90;99.90
42339;DHT22;27993;45.392;10.918;2022-10-26T09:50:06;25.40;99.90
42339;DHT22;27993;45.392;10.918;2022-10-26T09:52:44;27.30;99.90
42339;DHT22;27993;45.392;10.918;2022-10-26T09:55:15;28.40;99.90
42339;DHT22;27993;45.392;10.918;2022-10-26T09:57:51;28.50;99.90
42339;DHT22;27993;45.392;10.918;2022-10-26T10:00:25;28.50;99.90
42339;DHT22;27993;45.392;10.918;2022-10-26T10:02:57;28.80;99.90
42339;DHT22;27993;45.392;10.918;2022-10-26T10:05:49;30.10;99.90
42339;DHT22;27993;45.392;10.918;2022-10-26T10:08:23;30.20;99.90
42339;DHT22;27993;45.392;10.918;2022-10-26T10:11:12;31.10;99.90
42339;DHT22;27993;45.392;10.918;2022-10-26T10:13:44;31.30;99.90
42339;DHT22;27993;45.392;10.918;2022-10-26T10:16:22;31.10;99.90
42339;DHT22;27993;45.392;10.918;2022-10-26T10:18:56;31.70;99.90
42339;DHT22;27993;45.392;10.918;2022-10-26T10:24:25;30.30;99.90
42339;DHT22;27993;45.392;10.918;2022-10-26T10:29:33;30.30;99.90
42339;DHT22;27993;45.392;10.918;2022-10-26T10:32:18;29.80;99.90
42339;DHT22;27993;45.392;10.918;2022-10-26T10:37:39;30.70;99.90
42339;DHT22;27993;45.392;10.918;2022-10-26T10:40:18;31.30;99.90
42339;DHT22;27993;45.392;10.918;2022-10-26T10:42:50;30.70;99.90
42339;DHT22;27993;45.392;10.918;2022-10-26T10:45:27;30.60;99.90
42339;DHT22;27993;45.392;10.918;2022-10-26T10:50:55;29.80;99.90
42339;DHT22;27993;45.392;10.918;2022-10-26T10:59:09;29.20;99.90
42339;DHT22;27993;45.392;10.918;2022-10-26T11:10:39;28.60;99.90
42339;DHT22;27993;45.392;10.918;2022-10-26T11:13:21;27.80;99.90
42339;DHT22;27993;45.392;10.918;2022-10-26T11:16:04;27.40;99.90
42339;DHT22;27993;45.392;10.918;2022-10-26T11:18:42;27.50;99.90
42339;DHT22;27993;45.392;10.918;2022-10-26T11:21:29;28.00;99.90
42339;DHT22;27993;45.392;10.918;2022-10-26T11:24:14;27.70;99.90
42339;DHT22;27993;45.392;10.918;2022-10-26T11:26:53;28.00;99.90
42339;DHT22;27993;45.392;10.918;2022-10-26T11:29:42;27.80;99.90
42339;DHT22;27993;45.392;10.918;2022-10-26T11:32:23;27.60;99.90
42339;DHT22;27993;45.392;10.918;2022-10-26T11:38:00;27.70;99.90
42339;DHT22;27993;45.392;10.918;2022-10-26T11:43:37;27.40;99.90
42339;DHT22;27993;45.392;10.918;2022-10-26T11:54:59;27.30;99.90
42339;DHT22;27993;45.392;10.918;2022-10-26T11:57:32;27.30;99.90
42339;DHT22;27993;45.392;10.918;2022-10-26T12:00:16;27.10;99.90
42339;DHT22;27993;45.392;10.918;2022-10-26T12:02:55;27.10;99.90
42339;DHT22;27993;45.392;10.918;2022-10-26T12:08:19;27.20;99.90
42339;DHT22;27993;45.392;10.918;2022-10-26T12:13:43;27.40;99.90
42339;DHT22;27993;45.392;10.918;2022-10-26T12:20:03;27.20;99.90
42339;DHT22;27993;45.392;10.918;2022-10-26T12:22:33;27.10;99.90
42339;DHT22;27993;45.392;10.918;2022-10-26T12:35:37;26.60;99.90
42339;DHT22;27993;45.392;10.918;2022-10-26T12:41:22;26.50;99.90
42339;DHT22;27993;45.392;10.918;2022-10-26T12:43:57;26.10;99.90
42339;DHT22;27993;45.392;10.918;2022-10-26T12:48:58;26.30;99.90
42339;DHT22;27993;45.392;10.918;2022-10-26T12:59:59;26.20;99.90
42339;DHT22;27993;45.392;10.918;2022-10-26T13:09:21;26.20;99.90
42339;DHT22;27993;45.392;10.918;2022-10-26T13:11:55;26.30;99.90
42339;DHT22;27993;45.392;10.918;2022-10-26T13:14:33;26.30;99.90
42339;DHT22;27993;45.392;10.918;2022-10-26T13:17:06;26.20;99.90
42339;DHT22;27993;45.392;10.918;2022-10-26T13:19:54;26.00;99.90
42339;DHT22;27993;45.392;10.918;2022-10-26T13:22:26;26.00;99.90
42339;DHT22;27993;45.392;10.918;2022-10-26T13:25:03;26.00;99.90
42339;DHT22;27993;45.392;10.918;2022-10-26T13:32:40;25.90;99.90
42339;DHT22;27993;45.392;10.918;2022-10-26T13:35:13;25.80;99.90
42339;DHT22;27993;45.392;10.918;2022-10-26T13:37:47;25.50;99.90
42339;DHT22;27993;45.392;10.918;2022-10-26T13:40:28;25.40;99.90
42339;DHT22;27993;45.392;10.918;2022-10-26T13:43:03;25.30;99.90
42339;DHT22;27993;45.392;10.918;2022-10-26T13:48:37;25.10;99.90
42339;DHT22;27993;45.392;10.918;2022-10-26T13:51:19;25.20;99.90
42339;DHT22;27993;45.392;10.918;2022-10-26T13:53:56;25.40;99.90
42339;DHT22;27993;45.392;10.918;2022-10-26T13:56:38;25.20;99.90
42339;DHT22;27993;45.392;10.918;2022-10-26T13:59:12;25.10;99.90
42339;DHT22;27993;45.392;10.918;2022-10-26T14:01:43;24.90;99.90
42339;DHT22;27993;45.392;10.918;2022-10-26T14:04:24;25.00;99.90
42339;DHT22;27993;45.392;10.918;2022-10-26T14:06:55;24.80;99.90
42339;DHT22;27993;45.392;10.918;2022-10-26T14:09:28;24.70;99.90
42339;DHT22;27993;45.392;10.918;2022-10-26T14:12:00;24.80;99.90
42339;DHT22;27993;45.392;10.918;2022-10-26T14:14:34;24.90;99.90
42339;DHT22;27993;45.392;10.918;2022-10-26T14:17:05;25.00;99.90
42339;DHT22;27993;45.392;10.918;2022-10-26T14:19:38;24.80;99.90
42339;DHT22;27993;45.392;10.918;2022-10-26T14:22:19;24.80;99.90
42339;DHT22;27993;45.392;10.918;2022-10-26T14:24:56;24.90;99.90
42339;DHT22;27993;45.392;10.918;2022-10-26T14:27:32;24.90;99.90
42339;DHT22;27993;45.392;10.918;2022-10-26T14:32:53;24.90;99.90
42339;DHT22;27993;45.392;10.918;2022-10-26T14:35:28;24.80;99.90
42339;DHT22;27993;45.392;10.918;2022-10-26T14:38:02;24.80;99.90
42339;DHT22;27993;45.392;10.918;2022-10-26T14:40:35;24.70;99.90
42339;DHT22;27993;45.392;10.918;2022-10-26T14:43:06;24.50;99.90
42339;DHT22;27993;45.392;10.918;2022-10-26T14:45:38;24.50;99.90
42339;DHT22;27993;45.392;10.918;2022-10-26T14:48:23;24.50;99.90
42339;DHT22;27993;45.392;10.918;2022-10-26T14:53:35;24.50;99.90
42339;DHT22;27993;45.392;10.918;2022-10-26T14:56:24;24.50;99.90
42339;DHT22;27993;45.392;10.918;2022-10-26T14:58:56;24.50;99.90
42339;DHT22;27993;45.392;10.918;2022-10-26T15:01:29;24.40;99.90
42339;DHT22;27993;45.392;10.918;2022-10-26T15:04:03;24.40;99.90
42339;DHT22;27993;45.392;10.918;2022-10-26T15:06:41;24.40;99.90
42339;DHT22;27993;45.392;10.918;2022-10-26T15:09:51;24.20;99.90
42339;DHT22;27993;45.392;10.918;2022-10-26T15:12:36;24.10;99.90
42339;DHT22;27993;45.392;10.918;2022-10-26T15:17:52;24.10;99.90
42339;DHT22;27993;45.392;10.918;2022-10-26T15:20:25;24.00;99.90
42339;DHT22;27993;45.392;10.918;2022-10-26T15:23:00;23.90;99.90
42339;DHT22;27993;45.392;10.918;2022-10-26T15:25:33;23.70;99.90
42339;DHT22;27993;45.392;10.918;2022-10-26T15:28:20;23.60;99.90
42339;DHT22;27993;45.392;10.918;2022-10-26T15:36:26;23.50;99.90
42339;DHT22;27993;45.392;10.918;2022-10-26T15:38:58;23.50;99.90
42339;DHT22;27993;45.392;10.918;2022-10-26T15:41:31;23.50;99.90
42339;DHT22;27993;45.392;10.918;2022-10-26T15:44:05;23.40;99.90
42339;DHT22;27993;45.392;10.918;2022-10-26T15:46:39;23.40;99.90
42339;DHT22;27993;45.392;10.918;2022-10-26T15:49:14;23.40;99.90
42339;DHT22;27993;45.392;10.918;2022-10-26T15:51:46;23.40;99.90
42339;DHT22;27993;45.392;10.918;2022-10-26T15:54:17;23.30;99.90
42339;DHT22;27993;45.392;10.918;2022-10-26T15:56:48;23.20;99.90
42339;DHT22;27993;45.392;10.918;2022-10-26T15:59:19;23.10;99.90
42339;DHT22;27993;45.392;10.918;2022-10-26T16:01:49;23.00;99.90
42339;DHT22;27993;45.392;10.918;2022-10-26T16:04:22;22.90;99.90
42339;DHT22;27993;45.392;10.918;2022-10-26T16:06:52;22.80;99.90
42339;DHT22;27993;45.392;10.918;2022-10-26T16:09:23;22.70;99.90
42339;DHT22;27993;45.392;10.918;2022-10-26T16:11:53;22.60;99.90
42339;DHT22;27993;45.392;10.918;2022-10-26T16:14:24;22.50;99.90
42339;DHT22;27993;45.392;10.918;2022-10-26T16:16:54;22.40;99.90
42339;DHT22;27993;45.392;10.918;2022-10-26T16:19:25;22.30;99.90
42339;DHT22;27993;45.392;10.918;2022-10-26T16:21:55;22.30;99.90
42339;DHT22;27993;45.392;10.918;2022-10-26T16:24:27;22.20;99.90
42339;DHT22;27993;45.392;10.918;2022-10-26T16:26:57;22.10;99.90
42339;DHT22;27993;45.392;10.918;2022-10-26T16:29:29;22.10;99.90
42339;DHT22;27993;45.392;10.918;2022-10-26T16:31:59;22.00;99.90
42339;DHT22;27993;45.392;10.918;2022-10-26T16:34:30;22.00;99.90
42339;DHT22;27993;45.392;10.918;2022-10-26T16:37:01;21.90;99.90
42339;DHT22;27993;45.392;10.918;2022-10-26T16:39:31;21.80;99.90
42339;DHT22;27993;45.392;10.918;2022-10-26T16:42:02;21.70;99.90
42339;DHT22;27993;45.392;10.918;2022-10-26T16:44:33;21.70;99.90
42339;DHT22;27993;45.392;10.918;2022-10-26T16:47:04;21.70;99.90
42339;DHT22;27993;45.392;10.918;2022-10-26T16:49:34;21.60;99.90
42339;DHT22;27993;45.392;10.918;2022-10-26T16:52:05;21.50;99.90
42339;DHT22;27993;45.392;10.918;2022-10-26T16:54:36;21.40;99.90
42339;DHT22;27993;45.392;10.918;2022-10-26T16:57:07;21.20;99.90
42339;DHT22;27993;45.392;10.918;2022-10-26T16:59:37;21.10;99.90
42339;DHT22;27993;45.392;10.918;2022-10-26T17:02:09;21.00;99.90
42339;DHT22;27993;45.392;10.918;2022-10-26T17:04:42;20.90;99.90
42339;DHT22;27993;45.392;10.918;2022-10-26T17:07:12;20.90;99.90
42339;DHT22;27993;45.392;10.918;2022-10-26T17:09:43;20.80;99.90
42339;DHT22;27993;45.392;10.918;2022-10-26T17:12:14;20.70;99.90
42339;DHT22;27993;45.392;10.918;2022-10-26T17:14:44;20.50;99.90
42339;DHT22;27993;45.392;10.918;2022-10-26T17:17:15;20.30;99.90
42339;DHT22;27993;45.392;10.918;2022-10-26T17:19:45;20.40;99.90
42339;DHT22;27993;45.392;10.918;2022-10-26T17:22:16;20.40;99.90
42339;DHT22;27993;45.392;10.918;2022-10-26T17:24:47;20.50;99.90
42339;DHT22;27993;45.392;10.918;2022-10-26T17:27:17;20.50;99.90
42339;DHT22;27993;45.392;10.918;2022-10-26T17:29:49;20.50;99.90
42339;DHT22;27993;45.392;10.918;2022-10-26T17:32:20;20.60;99.90
42339;DHT22;27993;45.392;10.918;2022-10-26T17:34:51;20.30;99.90
42339;DHT22;27993;45.392;10.918;2022-10-26T17:37:22;20.10;99.90
42339;DHT22;27993;45.392;10.918;2022-10-26T17:39:52;20.10;99.90
42339;DHT22;27993;45.392;10.918;2022-10-26T17:42:23;20.00;99.90
42339;DHT22;27993;45.392;10.918;2022-10-26T17:44:53;20.10;99.90
42339;DHT22;27993;45.392;10.918;2022-10-26T17:47:24;20.20;99.90
42339;DHT22;27993;45.392;10.918;2022-10-26T17:49:55;20.20;99.90
42339;DHT22;27993;45.392;10.918;2022-10-26T17:52:25;20.20;99.90
42339;DHT22;27993;45.392;10.918;2022-10-26T17:54:56;20.20;99.90
42339;DHT22;27993;45.392;10.918;2022-10-26T17:57:26;20.20;99.90
42339;DHT22;27993;45.392;10.918;2022-10-26T17:59:57;20.20;99.90
42339;DHT22;27993;45.392;10.918;2022-10-26T18:02:28;20.30;99.90
42339;DHT22;27993;45.392;10.918;2022-10-26T18:04:59;20.30;99.90
42339;DHT22;27993;45.392;10.918;2022-10-26T18:07:29;20.20;99.90
42339;DHT22;27993;45.392;10.918;2022-10-26T18:10:00;20.20;99.90
42339;DHT22;27993;45.392;10.918;2022-10-26T18:12:31;20.20;99.90
42339;DHT22;27993;45.392;10.918;2022-10-26T18:15:02;20.20;99.90
42339;DHT22;27993;45.392;10.918;2022-10-26T18:17:32;20.00;99.90
42339;DHT22;27993;45.392;10.918;2022-10-26T18:20:03;19.90;99.90
42339;DHT22;27993;45.392;10.918;2022-10-26T18:22:34;19.80;99.90
42339;DHT22;27993;45.392;10.918;2022-10-26T18:25:05;19.70;99.90
42339;DHT22;27993;45.392;10.918;2022-10-26T18:27:35;19.50;99.90
42339;DHT22;27993;45.392;10.918;2022-10-26T18:30:06;19.40;99.90
42339;DHT22;27993;45.392;10.918;2022-10-26T18:32:37;19.30;99.90
42339;DHT22;27993;45.392;10.918;2022-10-26T18:35:08;19.30;99.90
42339;DHT22;27993;45.392;10.918;2022-10-26T18:37:38;19.30;99.90
42339;DHT22;27993;45.392;10.918;2022-10-26T18:40:09;19.40;99.90
42339;DHT22;27993;45.392;10.918;2022-10-26T18:42:40;19.40;99.90
42339;DHT22;27993;45.392;10.918;2022-10-26T18:45:11;19.10;99.90
42339;DHT22;27993;45.392;10.918;2022-10-26T18:47:41;19.10;99.90
42339;DHT22;27993;45.392;10.918;2022-10-26T18:50:12;19.10;99.90
42339;DHT22;27993;45.392;10.918;2022-10-26T18:52:43;19.20;99.90
42339;DHT22;27993;45.392;10.918;2022-10-26T18:55:14;19.30;99.90
42339;DHT22;27993;45.392;10.918;2022-10-26T18:57:44;19.30;99.90